createdAt,value
2019-03-30T00:00:18.166Z,1018.58
2019-03-30T00:01:18.102Z,1018.58
2019-03-30T00:02:18.185Z,1018.56
2019-03-30T00:03:18.110Z,1018.53
2019-03-30T00:04:18.116Z,1018.57
2019-03-30T00:05:18.057Z,1018.59
2019-03-30T00:06:18.112Z,1018.52
2019-03-30T00:07:18.025Z,1018.45
2019-03-30T00:08:18.160Z,1018.49
2019-03-30T00:09:18.018Z,1018.48
2019-03-30T00:10:18.031Z,1018.46
2019-03-30T00:11:17.984Z,1018.45
2019-03-30T00:13:19.035Z,1018.51
2019-03-30T00:14:19.015Z,1018.53
2019-03-30T00:15:17.946Z,1018.48
2019-03-30T00:17:18.967Z,1018.46
2019-03-30T00:19:18.974Z,1018.48
2019-03-30T00:20:17.999Z,1018.46
2019-03-30T00:21:17.870Z,1018.44
2019-03-30T00:22:19.963Z,1018.36
2019-03-30T00:23:17.852Z,1018.41
2019-03-30T00:24:25.732Z,1018.39
2019-03-30T00:25:17.830Z,1018.35
2019-03-30T00:27:18.861Z,1018.38
2019-03-30T00:29:17.809Z,1018.39
2019-03-30T00:30:19.265Z,1018.35
2019-03-30T00:31:17.782Z,1018.35
2019-03-30T00:32:17.874Z,1018.25
2019-03-30T00:33:17.735Z,1018.32
2019-03-30T00:34:17.820Z,1018.31
2019-03-30T00:35:17.724Z,1018.31
2019-03-30T00:36:17.800Z,1018.26
2019-03-30T00:37:17.695Z,1018.26
2019-03-30T00:38:17.724Z,1018.26
2019-03-30T00:39:17.707Z,1018.23
2019-03-30T00:40:17.756Z,1018.26
2019-03-30T00:41:17.708Z,1018.26
2019-03-30T00:42:17.749Z,1018.24
2019-03-30T00:43:17.642Z,1018.19
2019-03-30T00:44:17.659Z,1018.24
2019-03-30T00:45:17.657Z,1018.24
2019-03-30T00:46:17.766Z,1018.18
2019-03-30T00:47:17.585Z,1018.25
2019-03-30T00:49:18.613Z,1018.22
2019-03-30T00:50:20.799Z,1018.24
2019-03-30T00:51:17.553Z,1018.21
2019-03-30T00:52:19.563Z,1018.19
2019-03-30T00:53:17.525Z,1018.22
2019-03-30T00:54:17.633Z,1018.18
2019-03-30T00:55:17.532Z,1018.19
2019-03-30T00:57:17.486Z,1018.17
2019-03-30T00:58:19.513Z,1018.21
2019-03-30T00:59:17.459Z,1018.10
2019-03-30T01:00:18.514Z,1018.16
2019-03-30T01:01:17.432Z,1018.10
2019-03-30T01:02:17.476Z,1018.13
2019-03-30T01:03:17.421Z,1018.13
2019-03-30T01:05:17.423Z,1018.09
2019-03-30T01:07:18.414Z,1018.04
2019-03-30T01:09:18.393Z,1018.09
2019-03-30T01:10:18.479Z,1018.02
2019-03-30T01:11:17.328Z,1018.02
2019-03-30T01:12:17.438Z,1018.00
2019-03-30T01:13:17.304Z,1018.00
2019-03-30T01:14:17.356Z,1017.98
2019-03-30T01:15:17.283Z,1017.97
2019-03-30T01:16:18.459Z,1018.02
2019-03-30T01:17:17.262Z,1017.94
2019-03-30T01:18:17.304Z,1017.98
2019-03-30T01:19:17.231Z,1017.99
2019-03-30T01:20:17.292Z,1017.99
2019-03-30T01:21:17.217Z,1017.98
2019-03-30T01:22:17.336Z,1018.02
2019-03-30T01:23:17.231Z,1018.00
2019-03-30T01:24:17.219Z,1017.96
2019-03-30T01:25:17.175Z,1017.95
2019-03-30T01:26:17.231Z,1017.96
2019-03-30T01:27:17.174Z,1017.97
2019-03-30T01:28:17.244Z,1017.92
2019-03-30T01:29:17.145Z,1017.93
2019-03-30T01:30:23.100Z,1017.89
2019-03-30T01:31:18.104Z,1017.93
2019-03-30T01:32:17.194Z,1017.96
2019-03-30T01:33:17.087Z,1017.88
2019-03-30T01:34:17.189Z,1017.90
2019-03-30T01:35:17.122Z,1017.97
2019-03-30T01:36:17.105Z,1017.95
2019-03-30T01:37:17.158Z,1017.92
2019-03-30T01:38:17.116Z,1017.94
2019-03-30T01:39:17.028Z,1018.00
2019-03-30T01:40:17.134Z,1017.98
2019-03-30T01:41:17.005Z,1018.00
2019-03-30T01:42:17.061Z,1017.90
2019-03-30T01:43:16.978Z,1018.00
2019-03-30T01:44:17.062Z,1017.98
2019-03-30T01:45:16.955Z,1017.95
2019-03-30T01:46:17.081Z,1017.95
2019-03-30T01:47:16.970Z,1017.97
2019-03-30T01:48:16.976Z,1017.95
2019-03-30T01:49:16.916Z,1017.91
2019-03-30T01:50:18.104Z,1017.92
2019-03-30T01:51:16.927Z,1017.89
2019-03-30T01:52:17.039Z,1017.84
2019-03-30T01:53:16.880Z,1017.86
2019-03-30T01:54:16.925Z,1017.87
2019-03-30T01:55:16.873Z,1017.85
2019-03-30T01:56:16.938Z,1017.86
2019-03-30T01:57:16.876Z,1017.86
2019-03-30T01:58:16.957Z,1017.83
2019-03-30T01:59:16.837Z,1017.80
2019-03-30T02:00:16.853Z,1017.74
2019-03-30T02:01:16.795Z,1017.67
2019-03-30T02:02:16.896Z,1017.78
2019-03-30T02:03:16.785Z,1017.72
2019-03-30T02:04:16.772Z,1017.70
2019-03-30T02:05:16.735Z,1017.68
2019-03-30T02:06:16.817Z,1017.74
2019-03-30T02:07:16.723Z,1017.66
2019-03-30T02:08:16.844Z,1017.63
2019-03-30T02:09:16.697Z,1017.67
2019-03-30T02:10:16.732Z,1017.63
2019-03-30T02:11:16.693Z,1017.65
2019-03-30T02:12:16.738Z,1017.58
2019-03-30T02:13:16.680Z,1017.64
2019-03-30T02:14:16.744Z,1017.65
2019-03-30T02:15:16.634Z,1017.55
2019-03-30T02:16:16.654Z,1017.51
2019-03-30T02:17:16.603Z,1017.52
2019-03-30T02:18:17.733Z,1017.51
2019-03-30T02:19:16.584Z,1017.51
2019-03-30T02:20:30.186Z,1017.55
2019-03-30T02:21:17.591Z,1017.52
2019-03-30T02:22:16.598Z,1017.54
2019-03-30T02:23:16.588Z,1017.53
2019-03-30T02:24:16.616Z,1017.56
2019-03-30T02:25:16.522Z,1017.49
2019-03-30T02:26:16.621Z,1017.47
2019-03-30T02:27:16.513Z,1017.46
2019-03-30T02:28:16.580Z,1017.45
2019-03-30T02:29:16.473Z,1017.40
2019-03-30T02:30:16.549Z,1017.45
2019-03-30T02:31:16.461Z,1017.46
2019-03-30T02:32:16.591Z,1017.43
2019-03-30T02:33:16.510Z,1017.46
2019-03-30T02:34:16.481Z,1017.46
2019-03-30T02:35:16.419Z,1017.46
2019-03-30T02:36:16.487Z,1017.38
2019-03-30T02:37:16.391Z,1017.41
2019-03-30T02:38:16.509Z,1017.43
2019-03-30T02:39:16.392Z,1017.40
2019-03-30T02:40:16.409Z,1017.45
2019-03-30T02:41:16.348Z,1017.37
2019-03-30T02:42:16.428Z,1017.36
2019-03-30T02:43:16.389Z,1017.34
2019-03-30T02:44:16.391Z,1017.34
2019-03-30T02:45:16.297Z,1017.32
2019-03-30T02:46:16.370Z,1017.32
2019-03-30T02:47:16.292Z,1017.31
2019-03-30T02:49:17.343Z,1017.33
2019-03-30T02:50:16.293Z,1017.32
2019-03-30T02:51:16.241Z,1017.31
2019-03-30T02:52:16.294Z,1017.30
2019-03-30T02:53:16.218Z,1017.26
2019-03-30T02:54:16.336Z,1017.25
2019-03-30T02:55:16.190Z,1017.27
2019-03-30T02:56:16.224Z,1017.25
2019-03-30T02:57:16.169Z,1017.24
2019-03-30T02:58:16.246Z,1017.21
2019-03-30T02:59:16.145Z,1017.26
2019-03-30T03:00:16.275Z,1017.22
2019-03-30T03:01:16.124Z,1017.20
2019-03-30T03:02:16.161Z,1017.16
2019-03-30T03:03:16.102Z,1017.14
2019-03-30T03:04:16.200Z,1017.18
2019-03-30T03:05:16.113Z,1017.15
2019-03-30T03:06:16.187Z,1017.09
2019-03-30T03:07:16.069Z,1017.12
2019-03-30T03:08:16.099Z,1017.10
2019-03-30T03:09:16.092Z,1017.08
2019-03-30T03:10:16.160Z,1017.09
2019-03-30T03:11:16.024Z,1017.12
2019-03-30T03:12:16.124Z,1017.06
2019-03-30T03:13:15.992Z,1017.15
2019-03-30T03:14:16.037Z,1017.10
2019-03-30T03:15:16.022Z,1017.08
2019-03-30T03:16:16.067Z,1017.07
2019-03-30T03:17:15.952Z,1017.05
2019-03-30T03:18:16.062Z,1017.08
2019-03-30T03:19:15.926Z,1017.06
2019-03-30T03:20:16.009Z,1017.06
2019-03-30T03:21:15.909Z,1016.98
2019-03-30T03:22:15.996Z,1016.98
2019-03-30T03:23:15.886Z,1016.97
2019-03-30T03:24:16.007Z,1016.97
2019-03-30T03:25:15.908Z,1017.02
2019-03-30T03:26:15.915Z,1016.95
2019-03-30T03:27:15.837Z,1016.97
2019-03-30T03:28:15.937Z,1016.98
2019-03-30T03:29:15.821Z,1017.00
2019-03-30T03:30:15.887Z,1016.96
2019-03-30T03:31:15.817Z,1016.96
2019-03-30T03:32:15.919Z,1016.98
2019-03-30T03:33:15.806Z,1016.97
2019-03-30T03:34:15.877Z,1016.94
2019-03-30T03:35:15.793Z,1017.00
2019-03-30T03:36:15.779Z,1016.88
2019-03-30T03:37:15.734Z,1016.89
2019-03-30T03:38:15.799Z,1016.94
2019-03-30T03:39:15.717Z,1016.88
2019-03-30T03:40:15.867Z,1016.85
2019-03-30T03:41:15.690Z,1016.89
2019-03-30T03:42:15.728Z,1016.96
2019-03-30T03:43:15.672Z,1016.88
2019-03-30T03:44:15.732Z,1016.88
2019-03-30T03:45:15.673Z,1016.93
2019-03-30T03:46:15.792Z,1016.86
2019-03-30T03:47:15.617Z,1016.84
2019-03-30T03:48:15.661Z,1016.82
2019-03-30T03:49:15.598Z,1016.84
2019-03-30T03:50:15.676Z,1016.81
2019-03-30T03:51:25.773Z,1016.84
2019-03-30T03:52:16.572Z,1016.82
2019-03-30T03:53:15.720Z,1016.83
2019-03-30T03:54:15.570Z,1016.82
2019-03-30T03:55:15.632Z,1016.78
2019-03-30T03:56:15.578Z,1016.78
2019-03-30T03:57:15.620Z,1016.72
2019-03-30T03:58:15.573Z,1016.76
2019-03-30T03:59:15.540Z,1016.73
2019-03-30T04:00:15.506Z,1016.79
2019-03-30T04:01:15.575Z,1016.72
2019-03-30T04:02:15.464Z,1016.71
2019-03-30T04:03:15.572Z,1016.77
2019-03-30T04:04:15.454Z,1016.73
2019-03-30T04:05:15.506Z,1016.81
2019-03-30T04:06:15.447Z,1016.68
2019-03-30T04:07:15.496Z,1016.71
2019-03-30T04:08:15.415Z,1016.64
2019-03-30T04:09:15.497Z,1016.63
2019-03-30T04:10:15.375Z,1016.60
2019-03-30T04:11:15.545Z,1016.56
2019-03-30T04:12:15.353Z,1016.62
2019-03-30T04:13:15.453Z,1016.61
2019-03-30T04:14:15.343Z,1016.60
2019-03-30T04:15:15.457Z,1016.60
2019-03-30T04:16:15.337Z,1016.57
2019-03-30T04:17:15.570Z,1016.60
2019-03-30T04:18:15.302Z,1016.64
2019-03-30T04:19:15.395Z,1016.58
2019-03-30T04:20:15.258Z,1016.59
2019-03-30T04:21:15.380Z,1016.49
2019-03-30T04:22:15.274Z,1016.55
2019-03-30T04:23:15.306Z,1016.50
2019-03-30T04:24:15.234Z,1016.53
2019-03-30T04:25:15.308Z,1016.50
2019-03-30T04:26:15.261Z,1016.53
2019-03-30T04:27:16.267Z,1016.50
2019-03-30T04:28:15.181Z,1016.48
2019-03-30T04:29:15.237Z,1016.49
2019-03-30T04:30:15.145Z,1016.51
2019-03-30T04:31:15.244Z,1016.51
2019-03-30T04:32:15.158Z,1016.45
2019-03-30T04:33:15.158Z,1016.49
2019-03-30T04:34:15.103Z,1016.43
2019-03-30T04:35:15.171Z,1016.46
2019-03-30T04:36:15.103Z,1016.48
2019-03-30T04:37:15.210Z,1016.50
2019-03-30T04:38:15.082Z,1016.47
2019-03-30T04:39:15.105Z,1016.45
2019-03-30T04:40:15.040Z,1016.47
2019-03-30T04:41:15.126Z,1016.46
2019-03-30T04:42:15.046Z,1016.38
2019-03-30T04:43:15.209Z,1016.37
2019-03-30T04:44:15.009Z,1016.32
2019-03-30T04:45:15.047Z,1016.39
2019-03-30T04:46:14.997Z,1016.43
2019-03-30T04:47:15.077Z,1016.39
2019-03-30T04:48:14.958Z,1016.36
2019-03-30T04:49:15.079Z,1016.37
2019-03-30T04:50:14.932Z,1016.36
2019-03-30T04:51:14.979Z,1016.38
2019-03-30T04:52:14.931Z,1016.36
2019-03-30T04:53:14.989Z,1016.30
2019-03-30T04:54:14.901Z,1016.31
2019-03-30T04:55:15.040Z,1016.30
2019-03-30T04:56:14.946Z,1016.32
2019-03-30T04:57:14.940Z,1016.32
2019-03-30T04:58:14.857Z,1016.22
2019-03-30T04:59:14.938Z,1016.24
2019-03-30T05:00:14.847Z,1016.28
2019-03-30T05:01:14.889Z,1016.26
2019-03-30T05:02:14.798Z,1016.20
2019-03-30T05:03:14.911Z,1016.25
2019-03-30T05:04:14.782Z,1016.26
2019-03-30T05:05:14.873Z,1016.29
2019-03-30T05:06:14.779Z,1016.19
2019-03-30T05:07:14.775Z,1016.26
2019-03-30T05:08:14.769Z,1016.23
2019-03-30T05:09:14.834Z,1016.21
2019-03-30T05:10:14.721Z,1016.10
2019-03-30T05:11:14.817Z,1016.09
2019-03-30T05:12:14.694Z,1016.11
2019-03-30T05:13:14.762Z,1016.01
2019-03-30T05:14:14.679Z,1016.10
2019-03-30T05:15:14.764Z,1016.14
2019-03-30T05:16:14.683Z,1016.09
2019-03-30T05:17:14.735Z,1016.01
2019-03-30T05:18:14.659Z,1016.06
2019-03-30T05:19:14.693Z,1016.02
2019-03-30T05:20:14.604Z,1016.04
2019-03-30T05:21:14.662Z,1016.03
2019-03-30T05:22:16.602Z,1016.02
2019-03-30T05:23:14.716Z,1015.99
2019-03-30T05:24:14.566Z,1016.02
2019-03-30T05:25:14.592Z,1016.05
2019-03-30T05:26:14.531Z,1016.02
2019-03-30T05:27:14.617Z,1015.99
2019-03-30T05:28:14.548Z,1015.97
2019-03-30T05:29:14.629Z,1015.94
2019-03-30T05:30:14.506Z,1015.96
2019-03-30T05:31:14.535Z,1015.93
2019-03-30T05:32:14.470Z,1015.92
2019-03-30T05:33:14.575Z,1015.90
2019-03-30T05:34:14.444Z,1015.88
2019-03-30T05:35:14.561Z,1015.87
2019-03-30T05:36:14.432Z,1015.87
2019-03-30T05:37:14.473Z,1015.89
2019-03-30T05:38:14.408Z,1015.79
2019-03-30T05:39:14.547Z,1015.78
2019-03-30T05:40:14.378Z,1015.74
2019-03-30T05:41:14.402Z,1015.71
2019-03-30T05:42:14.351Z,1015.76
2019-03-30T05:43:14.442Z,1015.80
2019-03-30T05:44:14.394Z,1015.84
2019-03-30T05:45:14.445Z,1015.83
2019-03-30T05:46:14.322Z,1015.81
2019-03-30T05:47:14.382Z,1015.78
2019-03-30T05:48:14.294Z,1015.79
2019-03-30T05:49:14.415Z,1015.83
2019-03-30T05:50:14.274Z,1015.78
2019-03-30T05:51:14.367Z,1015.85
2019-03-30T05:52:25.900Z,1015.84
2019-03-30T05:53:15.246Z,1015.77
2019-03-30T05:54:14.307Z,1015.77
2019-03-30T05:55:14.217Z,1015.79
2019-03-30T05:56:14.295Z,1015.82
2019-03-30T05:57:14.196Z,1015.83
2019-03-30T05:58:14.215Z,1015.85
2019-03-30T05:59:14.212Z,1015.85
2019-03-30T06:00:14.222Z,1015.78
2019-03-30T06:01:14.156Z,1015.81
2019-03-30T06:02:14.235Z,1015.76
2019-03-30T06:03:14.145Z,1015.71
2019-03-30T06:04:14.197Z,1015.78
2019-03-30T06:05:15.333Z,1015.74
2019-03-30T06:06:14.155Z,1015.75
2019-03-30T06:07:14.079Z,1015.79
2019-03-30T06:08:14.076Z,1015.78
2019-03-30T06:09:14.078Z,1015.79
2019-03-30T06:10:14.134Z,1015.77
2019-03-30T06:11:14.053Z,1015.76
2019-03-30T06:12:14.137Z,1015.74
2019-03-30T06:13:14.034Z,1015.66
2019-03-30T06:14:14.140Z,1015.70
2019-03-30T06:15:14.040Z,1015.65
2019-03-30T06:16:14.096Z,1015.70
2019-03-30T06:17:13.987Z,1015.71
2019-03-30T06:18:14.036Z,1015.68
2019-03-30T06:19:13.972Z,1015.71
2019-03-30T06:20:14.093Z,1015.68
2019-03-30T06:21:13.957Z,1015.67
2019-03-30T06:22:13.976Z,1015.65
2019-03-30T06:23:13.901Z,1015.75
2019-03-30T06:24:13.974Z,1015.69
2019-03-30T06:25:13.973Z,1015.74
2019-03-30T06:26:14.015Z,1015.69
2019-03-30T06:27:13.898Z,1015.70
2019-03-30T06:28:13.900Z,1015.70
2019-03-30T06:29:14.362Z,1015.62
2019-03-30T06:30:13.951Z,1015.60
2019-03-30T06:31:13.827Z,1015.62
2019-03-30T06:32:13.834Z,1015.69
2019-03-30T06:33:13.801Z,1015.70
2019-03-30T06:34:13.847Z,1015.71
2019-03-30T06:35:13.800Z,1015.69
2019-03-30T06:36:13.989Z,1015.72
2019-03-30T06:37:13.771Z,1015.74
2019-03-30T06:38:13.775Z,1015.71
2019-03-30T06:39:13.739Z,1015.77
2019-03-30T06:40:13.802Z,1015.79
2019-03-30T06:41:13.732Z,1015.78
2019-03-30T06:42:13.797Z,1015.77
2019-03-30T06:43:13.690Z,1015.72
2019-03-30T06:44:14.840Z,1015.75
2019-03-30T06:45:13.679Z,1015.72
2019-03-30T06:46:13.815Z,1015.67
2019-03-30T06:47:13.655Z,1015.67
2019-03-30T06:48:13.739Z,1015.67
2019-03-30T06:49:13.635Z,1015.72
2019-03-30T06:50:13.660Z,1015.71
2019-03-30T06:51:13.965Z,1015.74
2019-03-30T06:52:13.671Z,1015.76
2019-03-30T06:53:13.575Z,1015.67
2019-03-30T06:54:14.880Z,1015.73
2019-03-30T06:55:13.570Z,1015.74
2019-03-30T06:56:13.616Z,1015.68
2019-03-30T06:57:13.545Z,1015.71
2019-03-30T06:58:13.658Z,1015.73
2019-03-30T06:59:13.531Z,1015.74
2019-03-30T07:00:13.625Z,1015.75
2019-03-30T07:01:13.513Z,1015.70
2019-03-30T07:02:13.526Z,1015.66
2019-03-30T07:03:13.465Z,1015.71
2019-03-30T07:04:13.545Z,1015.62
2019-03-30T07:05:13.476Z,1015.65
2019-03-30T07:06:13.586Z,1015.64
2019-03-30T07:07:13.459Z,1015.68
2019-03-30T07:08:13.490Z,1015.68
2019-03-30T07:09:13.438Z,1015.65
2019-03-30T07:10:13.487Z,1015.70
2019-03-30T07:11:21.165Z,1015.70
2019-03-30T07:12:14.396Z,1015.57
2019-03-30T07:13:13.850Z,1015.66
2019-03-30T07:14:13.342Z,1015.64
2019-03-30T07:15:13.413Z,1015.60
2019-03-30T07:16:13.323Z,1015.56
2019-03-30T07:17:13.473Z,1015.60
2019-03-30T07:18:13.320Z,1015.56
2019-03-30T07:19:13.350Z,1015.61
2019-03-30T07:20:13.286Z,1015.62
2019-03-30T07:21:13.358Z,1015.58
2019-03-30T07:22:13.332Z,1015.58
2019-03-30T07:24:14.295Z,1015.55
2019-03-30T07:25:13.276Z,1015.60
2019-03-30T07:26:13.222Z,1015.57
2019-03-30T07:27:13.324Z,1015.52
2019-03-30T07:28:13.193Z,1015.50
2019-03-30T07:29:13.426Z,1015.54
2019-03-30T07:30:13.167Z,1015.52
2019-03-30T07:31:13.419Z,1015.53
2019-03-30T07:32:13.183Z,1015.53
2019-03-30T07:33:13.460Z,1015.54
2019-03-30T07:34:13.134Z,1015.58
2019-03-30T07:35:13.250Z,1015.52
2019-03-30T07:36:13.106Z,1015.58
2019-03-30T07:37:13.290Z,1015.55
2019-03-30T07:38:13.080Z,1015.57
2019-03-30T07:39:13.196Z,1015.61
2019-03-30T07:40:13.066Z,1015.69
2019-03-30T07:41:13.300Z,1015.58
2019-03-30T07:42:13.047Z,1015.62
2019-03-30T07:43:13.434Z,1015.64
2019-03-30T07:44:13.033Z,1015.57
2019-03-30T07:45:13.313Z,1015.58
2019-03-30T07:46:13.020Z,1015.65
2019-03-30T07:47:13.440Z,1015.59
2019-03-30T07:48:12.996Z,1015.51
2019-03-30T07:50:14.012Z,1015.50
2019-03-30T07:52:13.992Z,1015.58
2019-03-30T07:53:25.738Z,1015.53
2019-03-30T07:54:14.094Z,1015.55
2019-03-30T07:55:13.596Z,1015.49
2019-03-30T07:56:12.879Z,1015.51
2019-03-30T07:57:17.144Z,1015.43
2019-03-30T07:58:12.901Z,1015.47
2019-03-30T07:59:12.944Z,1015.47
2019-03-30T08:00:12.849Z,1015.38
2019-03-30T08:02:13.861Z,1015.42
2019-03-30T08:04:13.919Z,1015.37
2019-03-30T08:06:13.828Z,1015.32
2019-03-30T08:08:13.810Z,1015.30
2019-03-30T08:09:14.133Z,1015.29
2019-03-30T08:10:12.720Z,1015.34
2019-03-30T08:12:13.782Z,1015.31
2019-03-30T08:14:13.780Z,1015.24
2019-03-30T08:16:13.655Z,1015.33
2019-03-30T08:17:14.557Z,1015.29
2019-03-30T08:18:12.657Z,1015.33
2019-03-30T08:19:14.400Z,1015.40
2019-03-30T08:20:12.627Z,1015.37
2019-03-30T08:23:13.637Z,1015.39
2019-03-30T08:24:14.750Z,1015.37
2019-03-30T08:25:12.569Z,1015.42
2019-03-30T08:26:14.725Z,1015.41
2019-03-30T08:27:12.536Z,1015.41
2019-03-30T08:28:14.951Z,1015.43
2019-03-30T08:29:12.523Z,1015.48
2019-03-30T08:30:14.677Z,1015.41
2019-03-30T08:31:12.517Z,1015.40
2019-03-30T08:32:14.874Z,1015.48
2019-03-30T08:33:12.491Z,1015.46
2019-03-30T08:34:14.915Z,1015.42
2019-03-30T08:35:12.480Z,1015.47
2019-03-30T08:36:15.015Z,1015.43
2019-03-30T08:37:12.451Z,1015.47
2019-03-30T08:38:15.142Z,1015.48
2019-03-30T08:39:12.416Z,1015.44
2019-03-30T08:40:15.172Z,1015.48
2019-03-30T08:41:12.413Z,1015.46
2019-03-30T08:43:13.435Z,1015.39
2019-03-30T08:45:13.419Z,1015.43
2019-03-30T08:47:13.378Z,1015.47
2019-03-30T08:49:13.364Z,1015.43
2019-03-30T08:51:13.352Z,1015.40
2019-03-30T08:53:13.320Z,1015.38
2019-03-30T08:55:13.320Z,1015.40
2019-03-30T08:57:14.141Z,1015.29
2019-03-30T08:59:13.239Z,1015.36
2019-03-30T09:00:16.203Z,1015.26
2019-03-30T09:01:12.157Z,1015.36
2019-03-30T09:02:15.904Z,1015.33
2019-03-30T09:03:12.146Z,1015.32
2019-03-30T09:04:15.812Z,1015.21
2019-03-30T09:05:12.136Z,1015.24
2019-03-30T09:06:15.938Z,1015.23
2019-03-30T09:07:12.107Z,1015.24
2019-03-30T09:09:12.081Z,1015.25
2019-03-30T09:10:13.349Z,1015.23
2019-03-30T09:11:12.074Z,1015.21
2019-03-30T09:14:13.082Z,1015.23
2019-03-30T09:16:12.023Z,1015.14
2019-03-30T09:18:13.105Z,1015.19
2019-03-30T09:19:14.101Z,1015.22
2019-03-30T09:20:11.976Z,1015.27
2019-03-30T09:21:14.148Z,1015.20
2019-03-30T09:22:11.959Z,1015.16
2019-03-30T09:23:14.104Z,1015.13
2019-03-30T09:24:11.910Z,1015.14
2019-03-30T09:25:12.392Z,1015.15
2019-03-30T09:26:11.918Z,1015.13
2019-03-30T09:27:11.990Z,1015.17
2019-03-30T09:28:11.862Z,1015.20
2019-03-30T09:29:11.891Z,1015.16
2019-03-30T09:30:11.845Z,1015.19
2019-03-30T09:31:12.056Z,1015.20
2019-03-30T09:32:14.659Z,1015.13
2019-03-30T09:33:11.926Z,1015.19
2019-03-30T09:34:11.789Z,1015.15
2019-03-30T09:35:11.832Z,1015.14
2019-03-30T09:36:11.764Z,1015.15
2019-03-30T09:37:11.975Z,1015.14
2019-03-30T09:38:14.666Z,1015.12
2019-03-30T09:39:11.871Z,1015.15
2019-03-30T09:40:11.731Z,1015.09
2019-03-30T09:41:11.801Z,1015.06
2019-03-30T09:42:11.727Z,1015.03
2019-03-30T09:43:11.789Z,1015.03
2019-03-30T09:44:11.690Z,1015.00
2019-03-30T09:45:11.800Z,1014.98
2019-03-30T09:46:11.662Z,1014.95
2019-03-30T09:47:11.744Z,1014.96
2019-03-30T09:48:11.644Z,1014.91
2019-03-30T09:49:11.760Z,1015.05
2019-03-30T09:50:11.638Z,1014.89
2019-03-30T09:51:11.650Z,1014.98
2019-03-30T09:52:11.629Z,1014.83
2019-03-30T09:53:11.756Z,1014.94
2019-03-30T09:54:23.167Z,1014.94
2019-03-30T09:55:12.562Z,1014.92
2019-03-30T09:56:11.674Z,1014.94
2019-03-30T09:57:11.571Z,1014.94
2019-03-30T09:58:11.582Z,1014.84
2019-03-30T09:59:11.537Z,1014.87
2019-03-30T10:00:11.601Z,1014.83
2019-03-30T10:01:11.504Z,1014.82
2019-03-30T10:02:11.532Z,1014.87
2019-03-30T10:03:11.479Z,1014.80
2019-03-30T10:04:11.517Z,1014.83
2019-03-30T10:05:11.449Z,1014.85
2019-03-30T10:06:11.555Z,1014.76
2019-03-30T10:07:11.468Z,1014.82
2019-03-30T10:08:11.470Z,1014.78
2019-03-30T10:09:11.411Z,1014.85
2019-03-30T10:11:12.465Z,1014.71
2019-03-30T10:12:11.478Z,1014.65
2019-03-30T10:13:11.409Z,1014.70
2019-03-30T10:14:11.390Z,1014.72
2019-03-30T10:15:11.342Z,1014.71
2019-03-30T10:16:11.397Z,1014.63
2019-03-30T10:17:11.333Z,1014.71
2019-03-30T10:18:11.452Z,1014.67
2019-03-30T10:19:11.307Z,1014.62
2019-03-30T10:20:11.329Z,1014.65
2019-03-30T10:21:11.282Z,1014.67
2019-03-30T10:22:11.338Z,1014.58
2019-03-30T10:23:11.280Z,1014.68
2019-03-30T10:24:11.355Z,1014.58
2019-03-30T10:25:11.248Z,1014.61
2019-03-30T10:26:11.266Z,1014.65
2019-03-30T10:27:11.214Z,1014.63
2019-03-30T10:28:11.339Z,1014.60
2019-03-30T10:29:11.182Z,1014.66
2019-03-30T10:30:11.291Z,1014.68
2019-03-30T10:31:11.170Z,1014.62
2019-03-30T10:32:11.214Z,1014.59
2019-03-30T10:33:11.164Z,1014.64
2019-03-30T10:34:11.220Z,1014.66
2019-03-30T10:35:11.121Z,1014.60
2019-03-30T10:36:11.239Z,1014.60
2019-03-30T10:37:11.114Z,1014.61
2019-03-30T10:38:11.174Z,1014.55
2019-03-30T10:39:11.082Z,1014.54
2019-03-30T10:40:11.158Z,1014.60
2019-03-30T10:41:11.050Z,1014.55
2019-03-30T10:42:11.073Z,1014.53
2019-03-30T10:43:11.036Z,1014.50
2019-03-30T10:44:11.133Z,1014.47
2019-03-30T10:45:11.005Z,1014.46
2019-03-30T10:46:11.102Z,1014.45
2019-03-30T10:47:10.995Z,1014.44
2019-03-30T10:48:11.036Z,1014.42
2019-03-30T10:49:10.982Z,1014.47
2019-03-30T10:50:11.023Z,1014.46
2019-03-30T10:51:10.945Z,1014.44
2019-03-30T10:52:11.040Z,1014.49
2019-03-30T10:53:10.921Z,1014.36
2019-03-30T10:54:10.975Z,1014.43
2019-03-30T10:55:10.895Z,1014.45
2019-03-30T10:56:10.959Z,1014.40
2019-03-30T10:57:10.894Z,1014.38
2019-03-30T10:58:10.977Z,1014.31
2019-03-30T10:59:10.882Z,1014.35
2019-03-30T11:01:11.880Z,1014.26
2019-03-30T11:02:10.831Z,1014.35
2019-03-30T11:03:10.810Z,1014.34
2019-03-30T11:04:10.844Z,1014.34
2019-03-30T11:05:10.806Z,1014.31
2019-03-30T11:06:10.783Z,1014.27
2019-03-30T11:07:10.770Z,1014.34
2019-03-30T11:08:10.842Z,1014.36
2019-03-30T11:09:10.765Z,1014.26
2019-03-30T11:10:10.861Z,1014.25
2019-03-30T11:11:10.727Z,1014.26
2019-03-30T11:12:10.762Z,1014.32
2019-03-30T11:13:10.705Z,1014.29
2019-03-30T11:14:10.814Z,1014.32
2019-03-30T11:15:10.676Z,1014.28
2019-03-30T11:16:10.719Z,1014.28
2019-03-30T11:17:10.659Z,1014.26
2019-03-30T11:18:10.705Z,1014.26
2019-03-30T11:19:10.627Z,1014.29
2019-03-30T11:20:10.717Z,1014.26
2019-03-30T11:21:10.633Z,1014.24
2019-03-30T11:22:10.624Z,1014.19
2019-03-30T11:23:10.607Z,1014.23
2019-03-30T11:24:10.671Z,1014.18
2019-03-30T11:25:10.594Z,1014.14
2019-03-30T11:26:10.653Z,1014.15
2019-03-30T11:27:10.545Z,1014.15
2019-03-30T11:28:10.570Z,1014.14
2019-03-30T11:29:10.520Z,1014.14
2019-03-30T11:30:10.625Z,1014.10
2019-03-30T11:31:10.513Z,1014.01
2019-03-30T11:32:10.710Z,1014.03
2019-03-30T11:33:10.899Z,1014.13
2019-03-30T11:34:10.504Z,1014.11
2019-03-30T11:35:10.483Z,1014.12
2019-03-30T11:36:10.554Z,1014.08
2019-03-30T11:37:10.443Z,1014.05
2019-03-30T11:38:10.534Z,1014.07
2019-03-30T11:39:10.409Z,1014.09
2019-03-30T11:40:10.474Z,1014.04
2019-03-30T11:41:10.407Z,1014.10
2019-03-30T11:42:10.462Z,1014.04
2019-03-30T11:43:10.360Z,1014.06
2019-03-30T11:44:10.483Z,1014.04
2019-03-30T11:45:10.370Z,1013.99
2019-03-30T11:46:10.413Z,1014.00
2019-03-30T11:47:10.320Z,1013.99
2019-03-30T11:48:10.406Z,1014.09
2019-03-30T11:49:10.316Z,1014.06
2019-03-30T11:50:10.336Z,1014.03
2019-03-30T11:51:10.312Z,1014.08
2019-03-30T11:52:10.333Z,1014.08
2019-03-30T11:53:10.259Z,1014.04
2019-03-30T11:54:10.353Z,1014.14
2019-03-30T11:55:20.940Z,1014.01
2019-03-30T11:56:11.261Z,1014.06
2019-03-30T11:57:10.257Z,1014.03
2019-03-30T11:58:10.194Z,1013.99
2019-03-30T12:00:11.226Z,1014.01
2019-03-30T12:01:10.319Z,1013.96
2019-03-30T12:02:10.153Z,1013.93
2019-03-30T12:03:10.205Z,1013.96
2019-03-30T12:04:10.125Z,1013.97
2019-03-30T12:05:10.211Z,1013.96
2019-03-30T12:06:10.137Z,1013.95
2019-03-30T12:07:10.124Z,1013.96
2019-03-30T12:08:10.084Z,1013.93
2019-03-30T12:09:10.137Z,1013.99
2019-03-30T12:10:10.064Z,1013.98
2019-03-30T12:11:10.179Z,1014.03
2019-03-30T12:12:10.059Z,1014.00
2019-03-30T12:13:10.064Z,1014.01
2019-03-30T12:14:10.040Z,1014.02
2019-03-30T12:15:10.105Z,1014.03
2019-03-30T12:16:10.025Z,1013.98
2019-03-30T12:17:10.093Z,1014.03
2019-03-30T12:18:09.989Z,1013.98
2019-03-30T12:19:10.024Z,1013.93
2019-03-30T12:20:09.972Z,1013.92
2019-03-30T12:21:10.045Z,1013.94
2019-03-30T12:22:09.990Z,1013.89
2019-03-30T12:23:10.037Z,1013.79
2019-03-30T12:24:09.917Z,1013.78
2019-03-30T12:25:09.967Z,1013.86
2019-03-30T12:26:09.928Z,1013.89
2019-03-30T12:27:09.954Z,1013.91
2019-03-30T12:28:09.876Z,1013.89
2019-03-30T12:29:09.967Z,1013.92
2019-03-30T12:30:09.896Z,1013.93
2019-03-30T12:31:09.882Z,1013.88
2019-03-30T12:32:09.844Z,1013.85
2019-03-30T12:33:09.941Z,1013.79
2019-03-30T12:34:12.982Z,1013.91
2019-03-30T12:35:09.906Z,1013.92
2019-03-30T12:36:09.790Z,1013.92
2019-03-30T12:37:09.820Z,1013.85
2019-03-30T12:38:09.779Z,1013.70
2019-03-30T12:39:09.843Z,1013.85
2019-03-30T12:40:09.744Z,1013.75
2019-03-30T12:41:09.848Z,1013.82
2019-03-30T12:42:09.747Z,1013.84
2019-03-30T12:43:09.765Z,1013.78
2019-03-30T12:44:09.692Z,1013.77
2019-03-30T12:45:09.787Z,1013.75